sensor_id;sensor_type;location;lat;lon;timestamp;temperature;humidity
2851;DHT22;1433;49.976;8.342;2023-03-14T00:00:50;10.40;99.90
2851;DHT22;1433;49.976;8.342;2023-03-14T00:03:16;10.50;99.90
2851;DHT22;1433;49.976;8.342;2023-03-14T00:05:44;10.50;99.90
2851;DHT22;1433;49.976;8.342;2023-03-14T00:08:10;10.50;99.90
2851;DHT22;1433;49.976;8.342;2023-03-14T00:10:37;10.50;99.90
2851;DHT22;1433;49.976;8.342;2023-03-14T00:13:03;10.50;99.90
2851;DHT22;1433;49.976;8.342;2023-03-14T00:15:30;10.60;99.90
2851;DHT22;1433;49.976;8.342;2023-03-14T00:17:57;10.60;99.90
2851;DHT22;1433;49.976;8.342;2023-03-14T00:20:23;10.70;99.90
2851;DHT22;1433;49.976;8.342;2023-03-14T00:22:49;10.70;99.90
2851;DHT22;1433;49.976;8.342;2023-03-14T00:25:16;10.80;99.90
2851;DHT22;1433;49.976;8.342;2023-03-14T00:27:42;10.80;99.90
2851;DHT22;1433;49.976;8.342;2023-03-14T00:30:09;10.80;99.90
2851;DHT22;1433;49.976;8.342;2023-03-14T00:32:36;10.80;99.90
2851;DHT22;1433;49.976;8.342;2023-03-14T00:35:03;10.90;99.90
2851;DHT22;1433;49.976;8.342;2023-03-14T00:37:30;10.90;99.90
2851;DHT22;1433;49.976;8.342;2023-03-14T00:39:56;11.00;99.90
2851;DHT22;1433;49.976;8.342;2023-03-14T00:42:25;11.00;99.90
2851;DHT22;1433;49.976;8.342;2023-03-14T00:44:51;11.00;99.90
2851;DHT22;1433;49.976;8.342;2023-03-14T00:47:17;11.00;99.90
2851;DHT22;1433;49.976;8.342;2023-03-14T00:49:43;11.00;99.90
2851;DHT22;1433;49.976;8.342;2023-03-14T00:52:10;11.00;99.90
2851;DHT22;1433;49.976;8.342;2023-03-14T00:54:36;11.00;99.90
2851;DHT22;1433;49.976;8.342;2023-03-14T00:57:02;11.00;99.90
2851;DHT22;1433;49.976;8.342;2023-03-14T00:59:29;10.90;99.90
2851;DHT22;1433;49.976;8.342;2023-03-14T01:01:55;11.00;99.90
2851;DHT22;1433;49.976;8.342;2023-03-14T01:04:21;11.00;99.90
2851;DHT22;1433;49.976;8.342;2023-03-14T01:06:47;11.00;99.90
2851;DHT22;1433;49.976;8.342;2023-03-14T01:09:14;11.00;99.90
2851;DHT22;1433;49.976;8.342;2023-03-14T01:11:41;11.10;99.90
2851;DHT22;1433;49.976;8.342;2023-03-14T01:14:08;11.00;99.90
2851;DHT22;1433;49.976;8.342;2023-03-14T01:16:35;11.00;99.90
2851;DHT22;1433;49.976;8.342;2023-03-14T01:19:01;11.00;99.90
2851;DHT22;1433;49.976;8.342;2023-03-14T01:21:32;11.00;99.90
2851;DHT22;1433;49.976;8.342;2023-03-14T01:24:00;11.00;99.90
2851;DHT22;1433;49.976;8.342;2023-03-14T01:26:30;11.00;99.90
2851;DHT22;1433;49.976;8.342;2023-03-14T01:28:58;11.00;99.90
2851;DHT22;1433;49.976;8.342;2023-03-14T01:31:26;11.00;99.90
2851;DHT22;1433;49.976;8.342;2023-03-14T01:33:52;11.00;99.90
2851;DHT22;1433;49.976;8.342;2023-03-14T01:36:19;11.00;99.90
2851;DHT22;1433;49.976;8.342;2023-03-14T01:38:46;11.00;99.90
2851;DHT22;1433;49.976;8.342;2023-03-14T01:41:18;11.00;99.90
2851;DHT22;1433;49.976;8.342;2023-03-14T01:43:44;11.00;99.90
2851;DHT22;1433;49.976;8.342;2023-03-14T01:46:34;11.00;99.90
2851;DHT22;1433;49.976;8.342;2023-03-14T01:54:17;11.00;99.90
2851;DHT22;1433;49.976;8.342;2023-03-14T01:56:46;11.00;99.90
2851;DHT22;1433;49.976;8.342;2023-03-14T01:59:14;11.00;99.90
2851;DHT22;1433;49.976;8.342;2023-03-14T02:01:43;11.00;99.90
2851;DHT22;1433;49.976;8.342;2023-03-14T02:04:10;11.10;99.90
2851;DHT22;1433;49.976;8.342;2023-03-14T02:06:56;11.10;99.90
2851;DHT22;1433;49.976;8.342;2023-03-14T02:09:20;11.10;99.90
2851;DHT22;1433;49.976;8.342;2023-03-14T02:11:46;11.10;99.90
2851;DHT22;1433;49.976;8.342;2023-03-14T02:14:33;11.10;99.90
2851;DHT22;1433;49.976;8.342;2023-03-14T02:17:18;11.00;99.90
2851;DHT22;1433;49.976;8.342;2023-03-14T02:23:08;11.00;99.90
2851;DHT22;1433;49.976;8.342;2023-03-14T02:25:48;11.00;99.90
2851;DHT22;1433;49.976;8.342;2023-03-14T02:28:14;11.00;99.90
2851;DHT22;1433;49.976;8.342;2023-03-14T02:30:41;11.00;99.90
2851;DHT22;1433;49.976;8.342;2023-03-14T02:33:16;11.00;99.90
2851;DHT22;1433;49.976;8.342;2023-03-14T02:36:01;10.90;99.90
2851;DHT22;1433;49.976;8.342;2023-03-14T02:38:47;10.90;99.90
2851;DHT22;1433;49.976;8.342;2023-03-14T02:41:15;10.80;99.90
2851;DHT22;1433;49.976;8.342;2023-03-14T02:43:43;10.70;99.90
2851;DHT22;1433;49.976;8.342;2023-03-14T02:46:13;10.70;99.90
2851;DHT22;1433;49.976;8.342;2023-03-14T02:49:00;10.70;99.90
2851;DHT22;1433;49.976;8.342;2023-03-14T02:51:24;10.70;99.90
2851;DHT22;1433;49.976;8.342;2023-03-14T02:53:54;10.80;99.90
2851;DHT22;1433;49.976;8.342;2023-03-14T02:56:20;10.80;99.90
2851;DHT22;1433;49.976;8.342;2023-03-14T02:58:46;10.80;99.90
2851;DHT22;1433;49.976;8.342;2023-03-14T03:01:20;10.80;99.90
2851;DHT22;1433;49.976;8.342;2023-03-14T03:03:46;10.70;99.90
2851;DHT22;1433;49.976;8.342;2023-03-14T03:06:12;10.80;99.90
2851;DHT22;1433;49.976;8.342;2023-03-14T03:08:39;10.70;99.90
2851;DHT22;1433;49.976;8.342;2023-03-14T03:11:06;10.80;99.90
2851;DHT22;1433;49.976;8.342;2023-03-14T03:13:32;10.80;99.90
2851;DHT22;1433;49.976;8.342;2023-03-14T03:16:00;10.80;99.90
2851;DHT22;1433;49.976;8.342;2023-03-14T03:18:27;10.80;99.90
2851;DHT22;1433;49.976;8.342;2023-03-14T03:20:53;10.80;99.90
2851;DHT22;1433;49.976;8.342;2023-03-14T03:23:19;10.80;99.90
2851;DHT22;1433;49.976;8.342;2023-03-14T03:25:49;10.80;99.90
2851;DHT22;1433;49.976;8.342;2023-03-14T03:28:15;10.80;99.90
2851;DHT22;1433;49.976;8.342;2023-03-14T03:30:42;10.70;99.90
2851;DHT22;1433;49.976;8.342;2023-03-14T03:33:10;10.80;99.90
2851;DHT22;1433;49.976;8.342;2023-03-14T03:35:41;10.80;99.90
2851;DHT22;1433;49.976;8.342;2023-03-14T03:38:08;10.70;99.90
2851;DHT22;1433;49.976;8.342;2023-03-14T03:40:36;10.80;99.90
2851;DHT22;1433;49.976;8.342;2023-03-14T03:43:03;10.80;99.90
2851;DHT22;1433;49.976;8.342;2023-03-14T03:45:30;10.80;99.90
2851;DHT22;1433;49.976;8.342;2023-03-14T03:47:57;10.80;99.90
2851;DHT22;1433;49.976;8.342;2023-03-14T03:50:23;10.80;99.90
2851;DHT22;1433;49.976;8.342;2023-03-14T03:52:49;10.80;99.90
2851;DHT22;1433;49.976;8.342;2023-03-14T03:55:15;10.80;99.90
2851;DHT22;1433;49.976;8.342;2023-03-14T03:57:42;10.80;99.90
2851;DHT22;1433;49.976;8.342;2023-03-14T04:00:10;10.90;99.90
2851;DHT22;1433;49.976;8.342;2023-03-14T04:02:41;10.90;99.90
2851;DHT22;1433;49.976;8.342;2023-03-14T04:05:09;10.90;99.90
2851;DHT22;1433;49.976;8.342;2023-03-14T04:07:36;10.90;99.90
2851;DHT22;1433;49.976;8.342;2023-03-14T04:10:04;10.90;99.90
2851;DHT22;1433;49.976;8.342;2023-03-14T04:12:35;10.90;99.90
2851;DHT22;1433;49.976;8.342;2023-03-14T04:15:04;10.90;99.90
2851;DHT22;1433;49.976;8.342;2023-03-14T04:17:31;10.90;99.90
2851;DHT22;1433;49.976;8.342;2023-03-14T04:19:57;10.90;99.90
2851;DHT22;1433;49.976;8.342;2023-03-14T04:22:25;11.00;99.90
2851;DHT22;1433;49.976;8.342;2023-03-14T04:24:52;11.00;99.90
2851;DHT22;1433;49.976;8.342;2023-03-14T04:27:20;11.00;99.90
2851;DHT22;1433;49.976;8.342;2023-03-14T04:29:47;10.90;99.90
2851;DHT22;1433;49.976;8.342;2023-03-14T04:32:15;10.90;99.90
2851;DHT22;1433;49.976;8.342;2023-03-14T04:34:41;10.80;99.90
2851;DHT22;1433;49.976;8.342;2023-03-14T04:37:08;10.90;99.90
2851;DHT22;1433;49.976;8.342;2023-03-14T04:39:36;10.90;99.90
2851;DHT22;1433;49.976;8.342;2023-03-14T04:42:04;10.80;99.90
2851;DHT22;1433;49.976;8.342;2023-03-14T04:44:30;10.70;99.90
2851;DHT22;1433;49.976;8.342;2023-03-14T04:46:57;10.70;99.90
2851;DHT22;1433;49.976;8.342;2023-03-14T04:49:23;10.70;99.90
2851;DHT22;1433;49.976;8.342;2023-03-14T04:51:50;10.60;99.90
2851;DHT22;1433;49.976;8.342;2023-03-14T04:54:20;10.60;99.90
2851;DHT22;1433;49.976;8.342;2023-03-14T04:56:48;10.70;99.90
2851;DHT22;1433;49.976;8.342;2023-03-14T04:59:14;10.70;99.90
2851;DHT22;1433;49.976;8.342;2023-03-14T05:01:41;10.70;99.90
2851;DHT22;1433;49.976;8.342;2023-03-14T05:04:27;10.70;99.90
2851;DHT22;1433;49.976;8.342;2023-03-14T05:06:58;10.80;99.90
2851;DHT22;1433;49.976;8.342;2023-03-14T05:09:35;10.80;99.90
2851;DHT22;1433;49.976;8.342;2023-03-14T05:12:20;10.80;99.90
2851;DHT22;1433;49.976;8.342;2023-03-14T05:15:00;10.70;99.90
2851;DHT22;1433;49.976;8.342;2023-03-14T05:17:35;10.70;99.90
2851;DHT22;1433;49.976;8.342;2023-03-14T05:20:09;10.70;99.90
2851;DHT22;1433;49.976;8.342;2023-03-14T05:22:42;10.70;99.90
2851;DHT22;1433;49.976;8.342;2023-03-14T05:25:10;10.70;99.90
2851;DHT22;1433;49.976;8.342;2023-03-14T05:27:55;10.70;99.90
2851;DHT22;1433;49.976;8.342;2023-03-14T05:30:26;10.80;99.90
2851;DHT22;1433;49.976;8.342;2023-03-14T05:33:04;10.80;99.90
2851;DHT22;1433;49.976;8.342;2023-03-14T05:35:38;10.80;99.90
2851;DHT22;1433;49.976;8.342;2023-03-14T05:38:23;10.80;99.90
2851;DHT22;1433;49.976;8.342;2023-03-14T05:41:00;10.80;99.90
2851;DHT22;1433;49.976;8.342;2023-03-14T05:43:44;10.90;99.90
2851;DHT22;1433;49.976;8.342;2023-03-14T05:46:29;10.90;99.90
2851;DHT22;1433;49.976;8.342;2023-03-14T05:49:04;10.90;99.90
2851;DHT22;1433;49.976;8.342;2023-03-14T05:51:32;10.90;99.90
2851;DHT22;1433;49.976;8.342;2023-03-14T05:54:05;10.90;99.90
2851;DHT22;1433;49.976;8.342;2023-03-14T05:56:48;10.90;99.90
2851;DHT22;1433;49.976;8.342;2023-03-14T05:59:24;10.90;99.90
2851;DHT22;1433;49.976;8.342;2023-03-14T06:01:59;10.90;99.90
2851;DHT22;1433;49.976;8.342;2023-03-14T06:04:27;10.90;99.90
2851;DHT22;1433;49.976;8.342;2023-03-14T06:06:55;10.80;99.90
2851;DHT22;1433;49.976;8.342;2023-03-14T06:09:21;10.80;99.90
2851;DHT22;1433;49.976;8.342;2023-03-14T06:11:50;10.80;99.90
2851;DHT22;1433;49.976;8.342;2023-03-14T06:14:17;10.80;99.90
2851;DHT22;1433;49.976;8.342;2023-03-14T06:16:45;10.80;99.90
2851;DHT22;1433;49.976;8.342;2023-03-14T06:19:14;10.80;99.90
2851;DHT22;1433;49.976;8.342;2023-03-14T06:21:41;10.80;99.90
2851;DHT22;1433;49.976;8.342;2023-03-14T06:24:08;10.80;99.90
2851;DHT22;1433;49.976;8.342;2023-03-14T06:26:36;10.80;99.90
2851;DHT22;1433;49.976;8.342;2023-03-14T06:29:04;10.80;99.90
2851;DHT22;1433;49.976;8.342;2023-03-14T06:31:32;10.80;99.90
2851;DHT22;1433;49.976;8.342;2023-03-14T06:34:01;10.80;99.90
2851;DHT22;1433;49.976;8.342;2023-03-14T06:36:29;10.80;99.90
2851;DHT22;1433;49.976;8.342;2023-03-14T06:38:56;10.80;99.90
2851;DHT22;1433;49.976;8.342;2023-03-14T06:41:22;10.90;99.90
2851;DHT22;1433;49.976;8.342;2023-03-14T06:43:51;10.90;99.90
2851;DHT22;1433;49.976;8.342;2023-03-14T06:46:17;10.90;99.90
2851;DHT22;1433;49.976;8.342;2023-03-14T06:48:43;10.90;99.90
2851;DHT22;1433;49.976;8.342;2023-03-14T06:51:11;11.00;99.90
2851;DHT22;1433;49.976;8.342;2023-03-14T06:53:38;11.00;99.90
2851;DHT22;1433;49.976;8.342;2023-03-14T06:56:05;11.00;99.90
2851;DHT22;1433;49.976;8.342;2023-03-14T06:58:33;11.00;99.90
2851;DHT22;1433;49.976;8.342;2023-03-14T07:00:59;11.00;99.90
2851;DHT22;1433;49.976;8.342;2023-03-14T07:03:28;11.10;99.90
2851;DHT22;1433;49.976;8.342;2023-03-14T07:05:55;11.10;99.90
2851;DHT22;1433;49.976;8.342;2023-03-14T07:08:21;11.20;99.90
2851;DHT22;1433;49.976;8.342;2023-03-14T07:10:47;11.20;99.90
2851;DHT22;1433;49.976;8.342;2023-03-14T07:13:14;11.20;99.90
2851;DHT22;1433;49.976;8.342;2023-03-14T07:15:42;11.20;99.90
2851;DHT22;1433;49.976;8.342;2023-03-14T07:18:09;11.00;99.90
2851;DHT22;1433;49.976;8.342;2023-03-14T07:20:35;11.10;99.90
2851;DHT22;1433;49.976;8.342;2023-03-14T07:23:01;11.10;99.90
2851;DHT22;1433;49.976;8.342;2023-03-14T07:25:37;11.00;99.90
2851;DHT22;1433;49.976;8.342;2023-03-14T07:28:03;11.00;99.90
2851;DHT22;1433;49.976;8.342;2023-03-14T07:30:30;11.00;99.90
2851;DHT22;1433;49.976;8.342;2023-03-14T07:32:57;11.00;99.90
2851;DHT22;1433;49.976;8.342;2023-03-14T07:35:25;11.10;99.90
2851;DHT22;1433;49.976;8.342;2023-03-14T07:37:52;11.10;99.90
2851;DHT22;1433;49.976;8.342;2023-03-14T07:40:20;11.10;99.90
2851;DHT22;1433;49.976;8.342;2023-03-14T07:42:47;11.10;99.90
2851;DHT22;1433;49.976;8.342;2023-03-14T07:45:19;11.10;99.90
2851;DHT22;1433;49.976;8.342;2023-03-14T07:47:45;11.10;99.90
2851;DHT22;1433;49.976;8.342;2023-03-14T07:50:11;11.20;99.90
2851;DHT22;1433;49.976;8.342;2023-03-14T07:52:37;11.20;99.90
2851;DHT22;1433;49.976;8.342;2023-03-14T07:55:04;11.20;99.90
2851;DHT22;1433;49.976;8.342;2023-03-14T07:57:31;11.20;99.90
2851;DHT22;1433;49.976;8.342;2023-03-14T07:59:57;11.20;99.90
2851;DHT22;1433;49.976;8.342;2023-03-14T08:02:23;11.20;99.90
2851;DHT22;1433;49.976;8.342;2023-03-14T08:04:50;11.20;99.90
2851;DHT22;1433;49.976;8.342;2023-03-14T08:07:16;11.20;99.90
2851;DHT22;1433;49.976;8.342;2023-03-14T08:09:42;11.20;99.90
2851;DHT22;1433;49.976;8.342;2023-03-14T08:12:08;11.30;99.90
2851;DHT22;1433;49.976;8.342;2023-03-14T08:14:35;11.30;99.90
2851;DHT22;1433;49.976;8.342;2023-03-14T08:17:01;11.30;99.90
2851;DHT22;1433;49.976;8.342;2023-03-14T08:19:27;11.40;99.90
2851;DHT22;1433;49.976;8.342;2023-03-14T08:21:56;11.40;99.90
2851;DHT22;1433;49.976;8.342;2023-03-14T08:24:22;11.40;99.90
2851;DHT22;1433;49.976;8.342;2023-03-14T08:26:49;11.30;99.90
2851;DHT22;1433;49.976;8.342;2023-03-14T08:29:15;11.30;99.90
2851;DHT22;1433;49.976;8.342;2023-03-14T08:31:41;11.50;99.90
2851;DHT22;1433;49.976;8.342;2023-03-14T08:34:07;11.60;99.90
2851;DHT22;1433;49.976;8.342;2023-03-14T08:36:34;11.70;99.90
2851;DHT22;1433;49.976;8.342;2023-03-14T08:39:00;11.70;99.90
2851;DHT22;1433;49.976;8.342;2023-03-14T08:41:26;11.70;99.90
2851;DHT22;1433;49.976;8.342;2023-03-14T08:43:52;11.70;99.90
2851;DHT22;1433;49.976;8.342;2023-03-14T08:46:18;11.70;99.90
2851;DHT22;1433;49.976;8.342;2023-03-14T08:48:44;11.60;99.90
2851;DHT22;1433;49.976;8.342;2023-03-14T08:51:13;11.80;99.90
2851;DHT22;1433;49.976;8.342;2023-03-14T08:53:40;11.90;99.90
2851;DHT22;1433;49.976;8.342;2023-03-14T08:56:07;12.00;99.90
2851;DHT22;1433;49.976;8.342;2023-03-14T08:58:36;12.20;99.90
2851;DHT22;1433;49.976;8.342;2023-03-14T09:01:05;12.30;99.90
2851;DHT22;1433;49.976;8.342;2023-03-14T09:03:31;12.40;99.90
2851;DHT22;1433;49.976;8.342;2023-03-14T09:06:03;12.40;99.90
2851;DHT22;1433;49.976;8.342;2023-03-14T09:08:30;12.40;99.90
2851;DHT22;1433;49.976;8.342;2023-03-14T09:10:57;12.40;99.90
2851;DHT22;1433;49.976;8.342;2023-03-14T09:13:23;12.40;99.90
2851;DHT22;1433;49.976;8.342;2023-03-14T09:15:54;12.30;99.90
2851;DHT22;1433;49.976;8.342;2023-03-14T09:18:21;12.30;99.90
2851;DHT22;1433;49.976;8.342;2023-03-14T09:20:49;12.30;99.90
2851;DHT22;1433;49.976;8.342;2023-03-14T09:23:15;12.40;99.90
2851;DHT22;1433;49.976;8.342;2023-03-14T09:25:41;12.40;99.90
2851;DHT22;1433;49.976;8.342;2023-03-14T09:28:08;12.20;99.90
2851;DHT22;1433;49.976;8.342;2023-03-14T09:30:34;12.20;99.90
2851;DHT22;1433;49.976;8.342;2023-03-14T09:33:00;12.10;99.90
2851;DHT22;1433;49.976;8.342;2023-03-14T09:35:26;12.10;99.90
2851;DHT22;1433;49.976;8.342;2023-03-14T09:37:52;12.10;99.90
2851;DHT22;1433;49.976;8.342;2023-03-14T09:40:19;12.10;99.90
2851;DHT22;1433;49.976;8.342;2023-03-14T09:42:53;12.10;99.90
2851;DHT22;1433;49.976;8.342;2023-03-14T09:45:26;12.10;99.90
2851;DHT22;1433;49.976;8.342;2023-03-14T09:47:53;12.10;99.90
2851;DHT22;1433;49.976;8.342;2023-03-14T09:50:21;12.10;99.90
2851;DHT22;1433;49.976;8.342;2023-03-14T09:52:50;12.10;99.90
2851;DHT22;1433;49.976;8.342;2023-03-14T09:55:20;12.20;99.90
2851;DHT22;1433;49.976;8.342;2023-03-14T09:57:54;12.20;99.90
2851;DHT22;1433;49.976;8.342;2023-03-14T10:00:21;12.20;99.90
2851;DHT22;1433;49.976;8.342;2023-03-14T10:02:52;12.30;99.90
2851;DHT22;1433;49.976;8.342;2023-03-14T10:05:21;12.40;99.90
2851;DHT22;1433;49.976;8.342;2023-03-14T10:07:48;12.40;99.90
2851;DHT22;1433;49.976;8.342;2023-03-14T10:10:20;12.40;99.90
2851;DHT22;1433;49.976;8.342;2023-03-14T10:12:56;12.40;99.90
2851;DHT22;1433;49.976;8.342;2023-03-14T10:15:33;12.40;99.90
2851;DHT22;1433;49.976;8.342;2023-03-14T10:18:02;12.40;99.90
2851;DHT22;1433;49.976;8.342;2023-03-14T10:20:36;12.50;99.90
2851;DHT22;1433;49.976;8.342;2023-03-14T10:25:58;12.40;99.90
2851;DHT22;1433;49.976;8.342;2023-03-14T10:28:26;12.30;99.90
2851;DHT22;1433;49.976;8.342;2023-03-14T10:30:55;12.20;99.90
2851;DHT22;1433;49.976;8.342;2023-03-14T10:33:27;12.10;99.90
2851;DHT22;1433;49.976;8.342;2023-03-14T10:35:59;12.00;99.90
2851;DHT22;1433;49.976;8.342;2023-03-14T10:38:29;12.00;99.90
2851;DHT22;1433;49.976;8.342;2023-03-14T10:40:56;12.00;99.90
2851;DHT22;1433;49.976;8.342;2023-03-14T10:43:33;12.10;99.90
2851;DHT22;1433;49.976;8.342;2023-03-14T10:46:35;12.10;99.90
2851;DHT22;1433;49.976;8.342;2023-03-14T10:48:39;12.10;99.90
2851;DHT22;1433;49.976;8.342;2023-03-14T10:54:01;12.30;99.90
2851;DHT22;1433;49.976;8.342;2023-03-14T10:56:34;12.20;99.90
2851;DHT22;1433;49.976;8.342;2023-03-14T10:59:02;12.30;99.90
2851;DHT22;1433;49.976;8.342;2023-03-14T11:04:25;12.50;99.90
2851;DHT22;1433;49.976;8.342;2023-03-14T11:09:49;12.40;99.90
2851;DHT22;1433;49.976;8.342;2023-03-14T11:20:42;12.30;99.90
2851;DHT22;1433;49.976;8.342;2023-03-14T11:31:19;12.70;99.90
2851;DHT22;1433;49.976;8.342;2023-03-14T11:36:21;13.10;99.90
2851;DHT22;1433;49.976;8.342;2023-03-14T11:38:50;13.10;99.90
2851;DHT22;1433;49.976;8.342;2023-03-14T11:41:22;12.90;99.90
2851;DHT22;1433;49.976;8.342;2023-03-14T11:43:52;12.80;99.90
2851;DHT22;1433;49.976;8.342;2023-03-14T11:51:27;12.00;99.90
2851;DHT22;1433;49.976;8.342;2023-03-14T11:57:05;11.90;99.90
2851;DHT22;1433;49.976;8.342;2023-03-14T11:59:55;12.10;99.90
2851;DHT22;1433;49.976;8.342;2023-03-14T12:08:19;11.20;99.90
2851;DHT22;1433;49.976;8.342;2023-03-14T12:10:54;10.80;99.90
2851;DHT22;1433;49.976;8.342;2023-03-14T12:13:18;10.50;99.90
2851;DHT22;1433;49.976;8.342;2023-03-14T12:15:56;10.60;99.90
2851;DHT22;1433;49.976;8.342;2023-03-14T12:18:28;10.70;99.90
2851;DHT22;1433;49.976;8.342;2023-03-14T12:21:00;10.80;99.90
2851;DHT22;1433;49.976;8.342;2023-03-14T12:23:33;11.00;99.90
2851;DHT22;1433;49.976;8.342;2023-03-14T12:26:14;11.00;99.90
2851;DHT22;1433;49.976;8.342;2023-03-14T12:29:04;11.00;99.90
2851;DHT22;1433;49.976;8.342;2023-03-14T12:31:36;11.20;99.90
2851;DHT22;1433;49.976;8.342;2023-03-14T12:39:39;11.20;99.90
2851;DHT22;1433;49.976;8.342;2023-03-14T12:42:21;11.20;99.90
2851;DHT22;1433;49.976;8.342;2023-03-14T12:44:53;11.30;99.90
2851;DHT22;1433;49.976;8.342;2023-03-14T12:49:52;11.50;99.90
2851;DHT22;1433;49.976;8.342;2023-03-14T12:52:34;11.60;99.90
2851;DHT22;1433;49.976;8.342;2023-03-14T12:55:06;11.60;99.90
2851;DHT22;1433;49.976;8.342;2023-03-14T13:00:31;11.70;1.00
2851;DHT22;1433;49.976;8.342;2023-03-14T13:03:19;11.50;99.90
2851;DHT22;1433;49.976;8.342;2023-03-14T13:05:59;11.10;99.90
2851;DHT22;1433;49.976;8.342;2023-03-14T13:08:43;10.80;99.90
2851;DHT22;1433;49.976;8.342;2023-03-14T13:11:12;11.10;99.90
2851;DHT22;1433;49.976;8.342;2023-03-14T13:13:48;11.30;99.90
2851;DHT22;1433;49.976;8.342;2023-03-14T13:16:41;11.70;99.90
2851;DHT22;1433;49.976;8.342;2023-03-14T13:19:15;12.10;99.90
2851;DHT22;1433;49.976;8.342;2023-03-14T13:21:41;11.50;99.90
2851;DHT22;1433;49.976;8.342;2023-03-14T13:24:22;10.60;99.90
2851;DHT22;1433;49.976;8.342;2023-03-14T13:26:49;9.30;99.90
2851;DHT22;1433;49.976;8.342;2023-03-14T13:29:29;8.70;99.90
2851;DHT22;1433;49.976;8.342;2023-03-14T13:32:02;8.60;99.90
2851;DHT22;1433;49.976;8.342;2023-03-14T13:34:31;8.30;99.90
2851;DHT22;1433;49.976;8.342;2023-03-14T13:36:57;8.30;99.90
2851;DHT22;1433;49.976;8.342;2023-03-14T13:39:26;8.40;99.90
2851;DHT22;1433;49.976;8.342;2023-03-14T13:41:57;8.80;99.90
2851;DHT22;1433;49.976;8.342;2023-03-14T13:44:31;9.40;99.90
2851;DHT22;1433;49.976;8.342;2023-03-14T13:46:59;9.50;99.90
2851;DHT22;1433;49.976;8.342;2023-03-14T13:49:28;9.50;99.90
2851;DHT22;1433;49.976;8.342;2023-03-14T13:51:57;9.60;99.90
2851;DHT22;1433;49.976;8.342;2023-03-14T13:54:26;10.20;99.90
2851;DHT22;1433;49.976;8.342;2023-03-14T13:57:04;10.60;99.90
2851;DHT22;1433;49.976;8.342;2023-03-14T13:59:32;10.70;99.90
2851;DHT22;1433;49.976;8.342;2023-03-14T14:02:02;10.80;99.90
2851;DHT22;1433;49.976;8.342;2023-03-14T14:04:28;10.70;99.90
2851;DHT22;1433;49.976;8.342;2023-03-14T14:06:59;10.90;99.90
2851;DHT22;1433;49.976;8.342;2023-03-14T14:09:28;11.50;99.90
2851;DHT22;1433;49.976;8.342;2023-03-14T14:11:58;12.10;99.90
2851;DHT22;1433;49.976;8.342;2023-03-14T14:16:58;12.50;99.90
2851;DHT22;1433;49.976;8.342;2023-03-14T14:19:27;12.30;99.90
2851;DHT22;1433;49.976;8.342;2023-03-14T14:21:54;12.60;99.90
2851;DHT22;1433;49.976;8.342;2023-03-14T14:24:23;12.20;99.90
2851;DHT22;1433;49.976;8.342;2023-03-14T14:26:52;11.70;99.90
2851;DHT22;1433;49.976;8.342;2023-03-14T14:29:31;11.50;87.40
2851;DHT22;1433;49.976;8.342;2023-03-14T14:32:03;11.40;99.90
2851;DHT22;1433;49.976;8.342;2023-03-14T14:34:43;11.30;99.90
2851;DHT22;1433;49.976;8.342;2023-03-14T14:37:24;11.00;99.90
2851;DHT22;1433;49.976;8.342;2023-03-14T14:39:52;10.90;99.90
2851;DHT22;1433;49.976;8.342;2023-03-14T14:42:25;10.80;99.90
2851;DHT22;1433;49.976;8.342;2023-03-14T14:44:52;10.80;99.90
2851;DHT22;1433;49.976;8.342;2023-03-14T14:47:22;11.20;99.90
2851;DHT22;1433;49.976;8.342;2023-03-14T14:49:50;11.80;99.90
2851;DHT22;1433;49.976;8.342;2023-03-14T14:54:51;11.70;99.90
2851;DHT22;1433;49.976;8.342;2023-03-14T14:57:32;12.00;99.90
2851;DHT22;1433;49.976;8.342;2023-03-14T15:00:04;12.60;99.90
2851;DHT22;1433;49.976;8.342;2023-03-14T15:02:41;11.90;99.90
2851;DHT22;1433;49.976;8.342;2023-03-14T15:05:17;11.00;99.90
2851;DHT22;1433;49.976;8.342;2023-03-14T15:07:44;10.30;99.90
2851;DHT22;1433;49.976;8.342;2023-03-14T15:10:17;10.10;99.90
2851;DHT22;1433;49.976;8.342;2023-03-14T15:12:43;10.00;99.90
2851;DHT22;1433;49.976;8.342;2023-03-14T15:15:10;9.40;99.90
2851;DHT22;1433;49.976;8.342;2023-03-14T15:17:37;8.70;99.90
2851;DHT22;1433;49.976;8.342;2023-03-14T15:20:06;8.50;99.90
2851;DHT22;1433;49.976;8.342;2023-03-14T15:22:32;8.10;99.90
2851;DHT22;1433;49.976;8.342;2023-03-14T15:24:58;8.10;99.90
2851;DHT22;1433;49.976;8.342;2023-03-14T15:27:25;7.80;99.90
2851;DHT22;1433;49.976;8.342;2023-03-14T15:29:51;7.90;99.90
2851;DHT22;1433;49.976;8.342;2023-03-14T15:32:17;8.20;99.90
2851;DHT22;1433;49.976;8.342;2023-03-14T15:34:44;8.00;99.90
2851;DHT22;1433;49.976;8.342;2023-03-14T15:37:15;8.00;99.90
2851;DHT22;1433;49.976;8.342;2023-03-14T15:39:43;8.00;99.90
2851;DHT22;1433;49.976;8.342;2023-03-14T15:42:09;7.90;99.90
2851;DHT22;1433;49.976;8.342;2023-03-14T15:44:35;7.90;99.90
2851;DHT22;1433;49.976;8.342;2023-03-14T15:47:02;7.70;99.90
2851;DHT22;1433;49.976;8.342;2023-03-14T15:49:29;7.60;99.90
2851;DHT22;1433;49.976;8.342;2023-03-14T15:51:55;7.60;99.90
2851;DHT22;1433;49.976;8.342;2023-03-14T15:54:21;7.70;99.90
2851;DHT22;1433;49.976;8.342;2023-03-14T15:56:48;7.80;99.90
2851;DHT22;1433;49.976;8.342;2023-03-14T15:59:14;7.80;99.90
2851;DHT22;1433;49.976;8.342;2023-03-14T16:01:40;7.70;99.90
2851;DHT22;1433;49.976;8.342;2023-03-14T16:04:06;7.40;99.90
2851;DHT22;1433;49.976;8.342;2023-03-14T16:06:33;7.40;99.90
2851;DHT22;1433;49.976;8.342;2023-03-14T16:09:01;7.20;99.90
2851;DHT22;1433;49.976;8.342;2023-03-14T16:11:29;7.00;99.90
2851;DHT22;1433;49.976;8.342;2023-03-14T16:13:55;6.90;99.90
2851;DHT22;1433;49.976;8.342;2023-03-14T16:16:21;7.00;99.90
2851;DHT22;1433;49.976;8.342;2023-03-14T16:18:47;7.00;99.90
2851;DHT22;1433;49.976;8.342;2023-03-14T16:21:15;7.00;99.90
2851;DHT22;1433;49.976;8.342;2023-03-14T16:23:42;7.00;99.90
2851;DHT22;1433;49.976;8.342;2023-03-14T16:26:12;6.90;99.90
2851;DHT22;1433;49.976;8.342;2023-03-14T16:28:38;7.00;99.90
2851;DHT22;1433;49.976;8.342;2023-03-14T16:31:11;7.00;99.90
2851;DHT22;1433;49.976;8.342;2023-03-14T16:33:49;7.00;99.90
2851;DHT22;1433;49.976;8.342;2023-03-14T16:36:26;7.00;99.90
2851;DHT22;1433;49.976;8.342;2023-03-14T16:38:55;7.00;99.90
2851;DHT22;1433;49.976;8.342;2023-03-14T16:41:32;7.00;99.90
2851;DHT22;1433;49.976;8.342;2023-03-14T16:44:01;7.00;99.90
2851;DHT22;1433;49.976;8.342;2023-03-14T16:46:28;7.10;99.90
2851;DHT22;1433;49.976;8.342;2023-03-14T16:49:01;7.10;99.90
2851;DHT22;1433;49.976;8.342;2023-03-14T16:51:27;7.10;99.90
2851;DHT22;1433;49.976;8.342;2023-03-14T16:53:53;6.90;99.90
2851;DHT22;1433;49.976;8.342;2023-03-14T16:56:20;6.70;99.90
2851;DHT22;1433;49.976;8.342;2023-03-14T16:58:47;6.40;99.90
2851;DHT22;1433;49.976;8.342;2023-03-14T17:01:16;6.10;99.90
2851;DHT22;1433;49.976;8.342;2023-03-14T17:03:45;5.90;99.90
2851;DHT22;1433;49.976;8.342;2023-03-14T17:06:15;5.80;99.90
2851;DHT22;1433;49.976;8.342;2023-03-14T17:08:43;5.90;99.90
2851;DHT22;1433;49.976;8.342;2023-03-14T17:11:13;5.90;99.90
2851;DHT22;1433;49.976;8.342;2023-03-14T17:13:43;5.90;99.90
2851;DHT22;1433;49.976;8.342;2023-03-14T17:16:09;6.10;99.90
2851;DHT22;1433;49.976;8.342;2023-03-14T17:18:37;6.10;99.90
2851;DHT22;1433;49.976;8.342;2023-03-14T17:21:06;6.10;99.90
2851;DHT22;1433;49.976;8.342;2023-03-14T17:23:36;6.00;99.90
2851;DHT22;1433;49.976;8.342;2023-03-14T17:26:04;5.90;99.90
2851;DHT22;1433;49.976;8.342;2023-03-14T17:28:36;5.90;99.90